Portada
METAR-TAF:

METAR-TAF

Aeropuertos :

Tambacounda, Senegal

latitud: 13-46N, longitud: 013-41W, altitud: 49 m

Observación

El informe se hizo hace 1 hora y 45 minutos, a las 12:00 UTC
Viento 8 kt del oeste-suroeste
Temperatura 30°C
Humedad 75%
Presión 1013 hPa
Visibilidad 10 km o más
Cielo nuboso a una altura de 1300 ft

METAR: GOTT 141200Z 24008KT 9999 BKN013 30/25 Q1013

Hora: 13:45 (13:45 UTC)


TAF: falta

Observaciones y pronósticos meteorológicos de más de 4000 aeropuertos (mensajes METAR y TAF).

Los puntos amarillos y rojos representan las estaciones disponibles.

Ponga el ratón en el punto deseado para ver el nombre de la estación.

Haga clic para ver las observaciones y los pronósticos meteorológicos.

Para cambiar el mapa : haga clic en los botones verdes con una cruz de color negro para hacer un zoom, en el botón verde con un guión para alejar o en las flechas verdes para mapas adyacentes.


METAR-TAF: